ZMUB/ULN METAR and TAF weather

Enter ICAO airport designator
Station Type Date Time Source
ZMUB METAR 2022/09/26 09:00 UTC NOAA

ZMUB 260900Z 21006MPS 190V250 CAVOK 21/M05 Q1010 NOSIG RMK QFE650.9 15


Station Type Date Time Source
ZMUB Decoded METAR 2022/09/26 09:00 UTC NOAA

Ulan-Bator, Mongolia (ZMUB) 47-51N 106-46E
Sep 26, 2022 - 05:00 AM EDT / 2022.09.26 0900 UTC
Wind: from the SSW (210 degrees) at 13 MPH (12 KT) (direction variable):0
Visibility: greater than 7 mile(s):0
Temperature: 69 F (21 C)
Dew Point: 23 F (-5 C)
Relative Humidity: 16%
Pressure (altimeter): 29.83 in. Hg (1010 hPa)
ob: ZMUB 260900Z 21006MPS 190V250 CAVOK 21/M05 Q1010 NOSIG RMK QFE650.9 15
cycle: 9

Station Type Date Time Source
ZMUB TAF 2022/09/26 06:57 UTC NOAA

TAF TAF ZMUB 260453Z 2606/2712 VRB02MPS 9999 SCT100 TX20/2607Z TN02/2621Z

Example: see airport list